createdAt,value
2022-12-18T00:01:28.706Z,35.90
2022-12-18T00:04:39.397Z,33.20
2022-12-18T00:07:50.428Z,33.67
2022-12-18T00:10:59.572Z,36.10
2022-12-18T00:14:06.354Z,33.25
2022-12-18T00:17:11.882Z,33.55
2022-12-18T00:20:25.481Z,34.60
2022-12-18T00:23:30.583Z,33.22
2022-12-18T00:27:03.213Z,33.60
2022-12-18T00:30:10.473Z,31.90
2022-12-18T00:33:20.113Z,42.17
2022-12-18T00:36:31.732Z,37.90
2022-12-18T00:39:38.197Z,31.95
2022-12-18T00:43:01.130Z,31.30
2022-12-18T00:46:07.336Z,36.78
2022-12-18T00:49:17.130Z,32.60
2022-12-18T00:52:25.264Z,34.40
2022-12-18T00:55:31.008Z,35.63
2022-12-18T00:58:53.797Z,32.03
2022-12-18T01:02:02.607Z,30.70
2022-12-18T01:05:12.472Z,32.10
2022-12-18T01:08:20.332Z,35.40
2022-12-18T01:11:26.482Z,32.67
2022-12-18T01:14:39.066Z,40.20
2022-12-18T01:17:49.518Z,34.40
2022-12-18T01:20:59.313Z,35.60
2022-12-18T01:24:15.093Z,35.15
2022-12-18T01:27:24.754Z,28.88
2022-12-18T01:30:33.547Z,29.10
2022-12-18T01:33:46.466Z,36.17
2022-12-18T01:36:53.146Z,32.05
2022-12-18T01:40:00.911Z,29.77
2022-12-18T01:43:11.531Z,32.67
2022-12-18T01:46:31.760Z,35.50
2022-12-18T01:49:38.995Z,31.75
2022-12-18T01:52:53.985Z,23.40
2022-12-18T01:56:00.565Z,26.60
2022-12-18T01:59:13.862Z,24.20
2022-12-18T02:02:20.591Z,19.58
2022-12-18T02:05:39.522Z,23.67
2022-12-18T02:08:58.864Z,23.67
2022-12-18T02:12:20.896Z,18.88
2022-12-18T02:15:35.660Z,24.17
2022-12-18T02:18:53.723Z,21.00
2022-12-18T02:25:47.217Z,20.85
2022-12-18T02:28:58.582Z,27.88
2022-12-18T02:32:15.829Z,27.98
2022-12-18T02:35:38.034Z,26.80
2022-12-18T02:38:48.886Z,21.90
2022-12-18T02:42:03.424Z,18.35
2022-12-18T02:45:10.395Z,20.67
2022-12-18T02:48:21.745Z,26.30
2022-12-18T02:51:41.404Z,22.40
2022-12-18T02:54:59.863Z,21.40
2022-12-18T02:58:10.791Z,22.45
2022-12-18T03:01:30.896Z,25.67
2022-12-18T03:04:52.461Z,20.23
2022-12-18T03:08:06.273Z,22.52
2022-12-18T03:11:16.168Z,23.48
2022-12-18T03:14:29.487Z,26.40
2022-12-18T03:17:48.852Z,22.85
2022-12-18T03:21:04.291Z,25.30
2022-12-18T03:24:19.005Z,25.73
2022-12-18T03:27:27.139Z,20.48
2022-12-18T03:30:48.116Z,22.92
2022-12-18T03:34:08.191Z,21.83
2022-12-18T03:40:40.919Z,22.80
2022-12-18T03:43:51.599Z,21.38
2022-12-18T03:47:10.092Z,18.15
2022-12-18T03:54:35.012Z,24.17
2022-12-18T03:57:54.673Z,23.65
2022-12-18T04:01:04.248Z,26.80
2022-12-18T04:04:20.966Z,29.13
2022-12-18T04:07:52.875Z,25.67
2022-12-18T04:10:57.042Z,26.77
2022-12-18T04:14:07.222Z,28.65
2022-12-18T04:17:25.087Z,28.52
2022-12-18T04:20:40.127Z,28.70
2022-12-18T04:24:09.306Z,26.17
2022-12-18T04:27:17.481Z,28.95
2022-12-18T04:30:31.259Z,26.75
2022-12-18T04:34:53.615Z,28.05
2022-12-18T04:38:09.020Z,27.48
2022-12-18T04:41:16.475Z,25.55
2022-12-18T04:44:27.490Z,28.42
2022-12-18T04:47:47.468Z,24.95
2022-12-18T04:51:06.104Z,24.30
2022-12-18T04:54:12.590Z,25.45
2022-12-18T04:57:19.452Z,28.33
2022-12-18T05:00:33.346Z,24.75
2022-12-18T05:03:39.324Z,18.98
2022-12-18T05:06:54.703Z,19.38
2022-12-18T05:10:10.933Z,19.00
2022-12-18T05:13:23.782Z,19.55
2022-12-18T05:16:40.182Z,17.85
2022-12-18T05:19:55.337Z,18.70
2022-12-18T05:23:14.595Z,14.75
2022-12-18T05:26:24.906Z,21.65
2022-12-18T05:29:38.652Z,16.58
2022-12-18T05:32:45.426Z,16.23
2022-12-18T05:35:59.694Z,16.90
2022-12-18T05:39:11.511Z,17.10
2022-12-18T05:42:22.273Z,20.30
2022-12-18T05:45:27.938Z,20.70
2022-12-18T05:48:31.929Z,18.58
2022-12-18T05:51:46.991Z,21.10
2022-12-18T05:54:59.947Z,17.60
2022-12-18T05:58:16.371Z,18.90
2022-12-18T06:01:34.030Z,15.95
2022-12-18T06:04:45.017Z,14.48
2022-12-18T06:07:53.862Z,20.40
2022-12-18T06:10:59.044Z,17.52
2022-12-18T06:14:06.585Z,14.65
2022-12-18T06:17:17.720Z,18.80
2022-12-18T06:20:29.169Z,12.35
2022-12-18T06:23:44.681Z,19.20
2022-12-18T06:26:51.771Z,17.75
2022-12-18T06:30:01.182Z,13.30
2022-12-18T06:33:09.842Z,15.55
2022-12-18T06:36:17.056Z,17.15
2022-12-18T06:39:48.637Z,17.35
2022-12-18T06:43:01.475Z,11.65
2022-12-18T06:46:25.239Z,16.60
2022-12-18T06:49:37.003Z,13.95
2022-12-18T06:52:48.388Z,15.55
2022-12-18T06:55:55.626Z,16.52
2022-12-18T07:02:13.879Z,16.63
2022-12-18T07:05:35.467Z,11.65
2022-12-18T07:08:43.820Z,12.85
2022-12-18T07:11:50.560Z,12.83
2022-12-18T07:15:05.307Z,10.65
2022-12-18T07:18:15.857Z,12.68
2022-12-18T07:21:42.679Z,10.00
2022-12-18T07:24:52.338Z,14.25
2022-12-18T07:28:00.333Z,12.48
2022-12-18T07:31:17.224Z,5.75
2022-12-18T07:34:31.966Z,11.38
2022-12-18T07:37:42.708Z,10.70
2022-12-18T07:40:46.713Z,15.38
2022-12-18T07:43:54.471Z,11.82
2022-12-18T07:47:12.219Z,12.35
2022-12-18T07:50:21.964Z,13.00
2022-12-18T07:53:33.642Z,13.60
2022-12-18T07:56:41.175Z,14.25
2022-12-18T07:59:55.082Z,15.90
2022-12-18T08:03:13.525Z,10.80
2022-12-18T08:06:31.479Z,10.30
2022-12-18T08:09:43.439Z,12.50
2022-12-18T08:13:03.131Z,14.32
2022-12-18T08:16:14.050Z,12.60
2022-12-18T08:19:23.212Z,9.40
2022-12-18T08:22:39.014Z,13.52
2022-12-18T08:25:55.993Z,13.18
2022-12-18T08:29:21.227Z,11.43
2022-12-18T08:32:26.448Z,7.15
2022-12-18T08:35:45.837Z,10.18
2022-12-18T08:38:50.794Z,9.63
2022-12-18T08:42:16.807Z,15.07
2022-12-18T08:45:22.100Z,12.73
2022-12-18T08:48:31.269Z,12.48
2022-12-18T08:51:46.706Z,10.48
2022-12-18T08:55:00.088Z,13.85
2022-12-18T08:58:14.084Z,10.43
2022-12-18T09:01:23.167Z,21.55
2022-12-18T09:04:35.279Z,14.65
2022-12-18T09:07:43.917Z,11.27
2022-12-18T09:10:52.394Z,12.57
2022-12-18T09:14:03.540Z,10.43
2022-12-18T09:17:08.649Z,13.60
2022-12-18T09:20:12.743Z,11.68
2022-12-18T09:23:18.557Z,10.93
2022-12-18T09:26:22.633Z,10.05
2022-12-18T09:29:26.081Z,6.68
2022-12-18T09:32:31.447Z,10.27
2022-12-18T09:35:38.211Z,13.48
2022-12-18T09:38:43.537Z,10.55
2022-12-18T09:41:54.515Z,8.00
2022-12-18T09:45:05.392Z,12.52
2022-12-18T09:48:16.649Z,14.68
2022-12-18T09:51:26.807Z,8.88
2022-12-18T09:54:38.357Z,13.10
2022-12-18T09:57:51.989Z,12.40
2022-12-18T10:01:01.474Z,11.15
2022-12-18T10:04:11.542Z,11.38
2022-12-18T10:07:31.025Z,11.85
2022-12-18T10:10:51.101Z,13.55
2022-12-18T10:14:20.171Z,13.25
2022-12-18T10:17:32.206Z,24.52
2022-12-18T10:20:44.860Z,23.40
2022-12-18T10:23:59.856Z,12.30
2022-12-18T10:27:17.005Z,12.63
2022-12-18T10:30:25.627Z,13.68
2022-12-18T10:34:46.761Z,15.38
2022-12-18T10:38:10.216Z,12.82
2022-12-18T10:41:29.242Z,12.65
2022-12-18T10:44:42.961Z,15.73
2022-12-18T10:47:49.512Z,14.02
2022-12-18T10:51:12.580Z,14.53
2022-12-18T10:54:19.083Z,12.45
2022-12-18T10:57:36.278Z,13.30
2022-12-18T11:00:40.465Z,13.90
2022-12-18T11:03:46.386Z,15.07
2022-12-18T11:07:00.505Z,15.60
2022-12-18T11:10:07.824Z,11.80
2022-12-18T11:16:21.437Z,15.05
2022-12-18T11:19:34.245Z,11.75
2022-12-18T11:22:40.392Z,12.38
2022-12-18T11:25:56.739Z,13.80
2022-12-18T11:29:11.036Z,13.77
2022-12-18T11:32:32.147Z,12.02
2022-12-18T11:35:48.173Z,13.27
2022-12-18T11:39:01.312Z,11.40
2022-12-18T11:42:17.325Z,15.13
2022-12-18T11:45:35.535Z,15.50
2022-12-18T11:48:46.704Z,13.85
2022-12-18T11:51:54.985Z,10.80
2022-12-18T11:55:03.490Z,13.25
2022-12-18T11:58:19.031Z,11.35
2022-12-18T12:01:44.965Z,11.32
2022-12-18T12:05:03.289Z,9.85
2022-12-18T12:08:18.439Z,10.98
2022-12-18T12:11:31.213Z,12.05
2022-12-18T12:14:49.497Z,13.90
2022-12-18T12:17:58.204Z,12.60
2022-12-18T12:21:52.473Z,13.30
2022-12-18T12:25:10.641Z,13.43
2022-12-18T12:28:30.786Z,12.30
2022-12-18T12:31:49.950Z,9.73
2022-12-18T12:35:11.862Z,12.52
2022-12-18T12:38:20.851Z,11.05
2022-12-18T12:41:45.667Z,13.75
2022-12-18T12:44:57.647Z,14.32
2022-12-18T12:48:04.622Z,11.82
2022-12-18T12:51:25.011Z,10.00
2022-12-18T12:54:37.875Z,9.32
2022-12-18T12:58:08.895Z,11.23
2022-12-18T13:01:24.139Z,12.60
2022-12-18T13:04:37.807Z,11.15
2022-12-18T13:07:48.199Z,12.35
2022-12-18T13:11:12.390Z,14.00
2022-12-18T13:14:26.206Z,13.52
2022-12-18T13:17:35.292Z,10.60
2022-12-18T13:20:42.100Z,12.73
2022-12-18T13:24:02.520Z,13.63
2022-12-18T13:28:04.408Z,14.25
2022-12-18T13:31:11.261Z,14.93
2022-12-18T13:34:26.763Z,11.35
2022-12-18T13:38:06.919Z,14.63
2022-12-18T13:41:30.177Z,14.05
2022-12-18T13:44:42.063Z,13.73
2022-12-18T13:47:46.223Z,12.40
2022-12-18T13:51:12.711Z,10.80
2022-12-18T13:54:29.566Z,14.15
2022-12-18T13:57:41.933Z,12.00
2022-12-18T14:00:52.840Z,11.85
2022-12-18T14:04:15.121Z,14.35
2022-12-18T14:07:27.184Z,15.77
2022-12-18T14:10:49.176Z,13.70
2022-12-18T14:13:59.103Z,15.77
2022-12-18T14:17:14.688Z,12.90
2022-12-18T14:20:33.795Z,13.50
2022-12-18T14:23:55.368Z,14.05
2022-12-18T14:27:22.156Z,14.68
2022-12-18T14:30:53.978Z,15.35
2022-12-18T14:37:09.049Z,15.13
2022-12-18T14:40:18.857Z,14.13
2022-12-18T14:43:32.183Z,14.95
2022-12-18T14:46:45.046Z,14.27
2022-12-18T14:49:59.585Z,14.48
2022-12-18T14:53:25.421Z,15.18
2022-12-18T14:56:51.914Z,15.00
2022-12-18T15:00:09.776Z,18.23
2022-12-18T15:03:27.759Z,19.90
2022-12-18T15:06:49.840Z,32.42
2022-12-18T15:10:14.496Z,18.90
2022-12-18T15:13:28.864Z,19.55
2022-12-18T15:16:46.001Z,16.52
2022-12-18T15:20:12.288Z,15.38
2022-12-18T15:23:51.446Z,16.08
2022-12-18T15:27:06.080Z,14.23
2022-12-18T15:30:25.081Z,15.40
2022-12-18T15:33:43.065Z,17.15
2022-12-18T15:37:12.843Z,16.00
2022-12-18T15:40:24.965Z,15.15
2022-12-18T15:43:36.707Z,14.20
2022-12-18T15:46:45.792Z,13.13
2022-12-18T15:49:52.402Z,13.30
2022-12-18T15:53:05.828Z,10.98
2022-12-18T15:56:32.965Z,10.27
2022-12-18T15:59:40.092Z,13.40
2022-12-18T16:03:03.182Z,11.50
2022-12-18T16:06:12.850Z,15.15
2022-12-18T16:09:48.881Z,19.00
2022-12-18T16:12:56.709Z,18.70
2022-12-18T16:16:03.116Z,12.68
2022-12-18T16:19:24.730Z,17.52
2022-12-18T16:22:32.587Z,16.45
2022-12-18T16:25:43.484Z,23.30
2022-12-18T16:29:03.147Z,24.83
2022-12-18T16:34:53.582Z,19.00
2022-12-18T16:38:02.984Z,18.75
2022-12-18T16:41:42.880Z,16.17
2022-12-18T16:45:04.051Z,13.88
2022-12-18T16:48:12.949Z,18.15
2022-12-18T16:51:23.220Z,15.63
2022-12-18T16:54:33.681Z,19.70
2022-12-18T16:57:47.362Z,18.85
2022-12-18T17:00:52.452Z,15.90
2022-12-18T17:04:10.855Z,18.83
2022-12-18T17:07:20.963Z,18.27
2022-12-18T17:10:26.484Z,14.43
2022-12-18T17:13:32.370Z,16.92
2022-12-18T17:16:40.079Z,18.70
2022-12-18T17:19:46.851Z,14.73
2022-12-18T17:23:22.686Z,17.85
2022-12-18T17:26:50.675Z,19.70
2022-12-18T17:30:08.169Z,18.30
2022-12-18T17:33:14.925Z,17.77
2022-12-18T17:36:21.321Z,12.85
2022-12-18T17:39:44.907Z,19.17
2022-12-18T17:42:57.864Z,18.95
2022-12-18T17:46:23.962Z,20.38
2022-12-18T17:49:33.390Z,16.60
2022-12-18T17:53:11.095Z,21.90
2022-12-18T17:56:29.072Z,27.50
2022-12-18T18:03:15.988Z,19.77
2022-12-18T18:06:25.082Z,17.90
2022-12-18T18:09:34.198Z,20.75
2022-12-18T18:12:59.926Z,21.73
2022-12-18T18:16:07.484Z,20.90
2022-12-18T18:19:25.254Z,19.17
2022-12-18T18:22:37.092Z,19.27
2022-12-18T18:25:46.736Z,19.77
2022-12-18T18:28:54.994Z,20.25
2022-12-18T18:32:01.052Z,20.75
2022-12-18T18:35:52.439Z,17.92
2022-12-18T18:39:06.645Z,16.67
2022-12-18T18:42:28.377Z,20.48
2022-12-18T18:45:43.116Z,22.13
2022-12-18T18:49:00.316Z,22.15
2022-12-18T18:52:07.158Z,18.83
2022-12-18T18:55:25.582Z,19.88
2022-12-18T18:58:38.716Z,17.77
2022-12-18T19:02:09.550Z,21.60
2022-12-18T19:05:17.474Z,17.90
2022-12-18T19:08:40.386Z,23.15
2022-12-18T19:12:07.048Z,16.60
2022-12-18T19:15:13.940Z,21.55
2022-12-18T19:18:36.344Z,21.35
2022-12-18T19:21:43.252Z,18.45
2022-12-18T19:24:52.137Z,21.77
2022-12-18T19:28:22.031Z,21.60
2022-12-18T19:31:35.917Z,19.75
2022-12-18T19:34:44.040Z,17.80
2022-12-18T19:38:02.106Z,15.60
2022-12-18T19:41:09.986Z,20.55
2022-12-18T19:44:16.907Z,21.95
2022-12-18T19:47:45.557Z,20.85
2022-12-18T19:51:08.687Z,19.92
2022-12-18T19:54:17.737Z,21.10
2022-12-18T19:57:34.151Z,18.35
2022-12-18T20:00:39.475Z,14.75
2022-12-18T20:03:52.772Z,20.33
2022-12-18T20:07:00.292Z,20.23
2022-12-18T20:10:10.521Z,17.25
2022-12-18T20:13:18.712Z,21.27
2022-12-18T20:20:53.068Z,22.23
2022-12-18T20:24:16.312Z,18.35
2022-12-18T20:27:40.871Z,16.67
2022-12-18T20:30:46.696Z,19.75
2022-12-18T20:34:00.266Z,25.90
2022-12-18T20:37:08.821Z,18.75
2022-12-18T20:40:17.867Z,22.45
2022-12-18T20:43:21.709Z,16.73
2022-12-18T20:46:25.676Z,19.27
2022-12-18T20:49:29.756Z,7.38
2022-12-18T20:52:36.714Z,5.37
2022-12-18T20:55:44.700Z,1.88
2022-12-18T20:58:48.407Z,6.80
2022-12-18T21:01:52.580Z,17.75
2022-12-18T21:05:00.345Z,23.35
2022-12-18T21:08:06.881Z,19.67
2022-12-18T21:11:33.670Z,13.02
2022-12-18T21:14:37.573Z,17.83
2022-12-18T21:17:45.016Z,15.43
2022-12-18T21:23:52.339Z,24.85
2022-12-18T21:27:02.113Z,11.68
2022-12-18T21:30:20.809Z,18.38
2022-12-18T21:33:25.864Z,17.00
2022-12-18T21:36:29.352Z,13.80
2022-12-18T21:39:35.224Z,17.65
2022-12-18T21:42:58.590Z,8.23
2022-12-18T21:46:06.881Z,17.77
2022-12-18T21:49:14.719Z,7.55
2022-12-18T21:52:26.295Z,13.20
2022-12-18T21:55:36.633Z,23.98
2022-12-18T21:58:55.611Z,23.90
2022-12-18T22:02:02.915Z,23.15
2022-12-18T22:08:17.747Z,19.95
2022-12-18T22:11:21.088Z,17.35
2022-12-18T22:14:30.520Z,20.13
2022-12-18T22:17:35.007Z,15.35
2022-12-18T22:20:38.918Z,16.35
2022-12-18T22:23:54.188Z,13.57
2022-12-18T22:27:02.007Z,17.60
2022-12-18T22:30:14.472Z,18.05
2022-12-18T22:34:45.476Z,11.45
2022-12-18T22:37:48.989Z,16.70
2022-12-18T22:40:58.213Z,13.48
2022-12-18T22:44:07.566Z,11.23
2022-12-18T22:50:26.241Z,42.58
2022-12-18T22:53:30.295Z,28.02
2022-12-18T22:56:34.842Z,24.30
2022-12-18T22:59:39.740Z,24.75
2022-12-18T23:02:45.174Z,30.08
2022-12-18T23:05:53.828Z,31.50
2022-12-18T23:09:00.019Z,27.38
2022-12-18T23:12:04.122Z,15.50
2022-12-18T23:15:08.191Z,15.13
2022-12-18T23:18:12.164Z,18.55
2022-12-18T23:21:20.308Z,18.83
2022-12-18T23:24:25.385Z,12.40
2022-12-18T23:27:29.747Z,14.30
2022-12-18T23:30:39.474Z,20.63
2022-12-18T23:33:43.437Z,14.68
2022-12-18T23:36:53.234Z,13.35
2022-12-18T23:39:59.293Z,13.10
2022-12-18T23:43:02.921Z,18.60
2022-12-18T23:46:13.451Z,20.13
2022-12-18T23:49:17.903Z,19.88
2022-12-18T23:52:24.842Z,16.85
2022-12-18T23:55:29.732Z,20.25
2022-12-18T23:58:34.215Z,18.42
